Terminal Aerodrome Forecast
Issued by NWS Cleveland, OH

Home | Current Version | Previous Version | Text Only | Print | Product List | Glossary On
Versions: 1 2 3 4 5 6 7 8 9 10 11 12 13 14 15 16 17
683
FTUS41 KCLE 230530
TAFYNG
TAF
KYNG 230530Z 2306/2406 18004KT P6SM SCT250
     FM231400 12004KT P6SM SCT250
     FM231800 12007KT P6SM BKN200=

USA.gov is the U.S. government's official web portal to all federal, state and local government web resources and services.